createdAt,value
2022-09-04T00:01:25.058Z,99.90
2022-09-04T00:06:32.798Z,99.90
2022-09-04T00:11:58.377Z,99.90
2022-09-04T00:17:06.549Z,99.90
2022-09-04T00:22:22.585Z,99.90
2022-09-04T00:27:32.814Z,99.90
2022-09-04T00:32:45.682Z,99.90
2022-09-04T00:37:54.670Z,99.90
2022-09-04T00:43:35.094Z,99.90
2022-09-04T00:49:19.961Z,99.90
2022-09-04T00:54:42.368Z,99.90
2022-09-04T01:00:05.600Z,99.90
2022-09-04T01:05:19.611Z,99.90
2022-09-04T01:10:40.610Z,99.90
2022-09-04T01:15:50.527Z,99.90
2022-09-04T01:21:06.597Z,99.90
2022-09-04T01:26:17.142Z,99.90
2022-09-04T01:31:27.945Z,99.90
2022-09-04T01:36:39.354Z,99.90
2022-09-04T01:41:48.046Z,99.90
2022-09-04T01:47:01.159Z,99.90
2022-09-04T01:52:25.913Z,99.90
2022-09-04T01:57:42.202Z,99.90
2022-09-04T02:02:55.990Z,99.90
2022-09-04T02:08:09.626Z,99.90
2022-09-04T02:13:23.326Z,99.90
2022-09-04T02:18:38.697Z,99.90
2022-09-04T02:23:46.538Z,99.90
2022-09-04T02:29:00.162Z,99.90
2022-09-04T02:34:09.837Z,99.90
2022-09-04T02:39:27.961Z,99.90
2022-09-04T02:44:45.105Z,99.90
2022-09-04T02:50:04.710Z,99.90
2022-09-04T02:55:21.888Z,99.90
2022-09-04T03:00:40.366Z,99.90
2022-09-04T03:05:51.321Z,99.90
2022-09-04T03:11:00.717Z,99.90
2022-09-04T03:16:11.382Z,99.90
2022-09-04T03:21:22.026Z,99.90
2022-09-04T03:26:29.362Z,99.90
2022-09-04T03:31:41.869Z,99.90
2022-09-04T03:36:57.652Z,99.90
2022-09-04T03:42:07.740Z,99.90
2022-09-04T03:47:21.384Z,99.90
2022-09-04T03:52:33.117Z,99.90
2022-09-04T03:57:52.013Z,99.90
2022-09-04T04:03:11.021Z,99.90
2022-09-04T04:08:34.833Z,99.90
2022-09-04T04:14:14.266Z,99.90
2022-09-04T04:19:34.857Z,99.90
2022-09-04T04:24:57.544Z,99.90
2022-09-04T04:30:06.844Z,99.90
2022-09-04T04:35:21.557Z,99.90
2022-09-04T04:40:38.807Z,99.90
2022-09-04T04:45:54.209Z,99.90
2022-09-04T04:51:10.165Z,99.90
2022-09-04T04:56:19.329Z,99.90
2022-09-04T05:01:43.282Z,99.90
2022-09-04T05:06:55.180Z,99.90
2022-09-04T05:12:04.650Z,99.90
2022-09-04T05:17:18.617Z,99.90
2022-09-04T05:22:34.214Z,99.90
2022-09-04T05:27:48.342Z,99.90
2022-09-04T05:32:58.531Z,99.90
2022-09-04T05:38:09.909Z,99.90
2022-09-04T05:43:24.120Z,99.90
2022-09-04T05:48:33.584Z,99.90
2022-09-04T05:53:49.770Z,99.90
2022-09-04T05:59:10.033Z,99.90
2022-09-04T06:04:35.699Z,99.90
2022-09-04T06:09:59.846Z,99.90
2022-09-04T06:15:20.353Z,99.90
2022-09-04T06:20:49.623Z,99.90
2022-09-04T06:26:21.313Z,99.90
2022-09-04T06:31:58.237Z,99.90
2022-09-04T06:37:16.382Z,99.90
2022-09-04T06:42:41.406Z,99.90
2022-09-04T06:48:01.724Z,99.90
2022-09-04T06:53:18.367Z,99.90
2022-09-04T06:59:00.593Z,99.90
2022-09-04T07:04:19.052Z,99.90
2022-09-04T07:09:28.251Z,99.90
2022-09-04T07:14:45.170Z,99.90
2022-09-04T07:20:10.377Z,99.90
2022-09-04T07:25:19.873Z,99.90
2022-09-04T07:30:27.282Z,99.90
2022-09-04T07:35:36.457Z,99.90
2022-09-04T07:40:44.575Z,99.90
2022-09-04T07:45:58.952Z,99.90
2022-09-04T07:51:10.649Z,99.90
2022-09-04T07:56:23.594Z,99.90
2022-09-04T08:02:03.578Z,99.90
2022-09-04T08:07:13.841Z,99.90
2022-09-04T08:12:39.780Z,99.90
2022-09-04T08:18:11.426Z,99.90
2022-09-04T08:23:44.529Z,99.90
2022-09-04T08:29:12.757Z,99.90
2022-09-04T08:34:50.544Z,99.90
2022-09-04T08:40:11.450Z,99.90
2022-09-04T08:45:55.350Z,99.90
2022-09-04T08:51:40.784Z,99.90
2022-09-04T08:56:55.442Z,99.90
2022-09-04T09:02:37.566Z,99.90
2022-09-04T09:08:15.394Z,99.90
2022-09-04T09:14:05.903Z,99.90
2022-09-04T09:19:23.263Z,99.90
2022-09-04T09:24:58.264Z,99.90
2022-09-04T09:30:09.805Z,94.80
2022-09-04T09:35:55.840Z,99.90
2022-09-04T09:41:19.208Z,99.10
2022-09-04T09:47:01.185Z,99.90
2022-09-04T09:52:20.069Z,99.40
2022-09-04T09:57:47.235Z,93.80
2022-09-04T10:03:34.132Z,91.20
2022-09-04T10:09:09.496Z,93.30
2022-09-04T10:14:52.238Z,91.90
2022-09-04T10:20:38.600Z,82.80
2022-09-04T10:26:00.284Z,77.20
2022-09-04T10:31:37.030Z,76.70
2022-09-04T10:36:54.211Z,73.00
2022-09-04T10:42:21.706Z,64.40
2022-09-04T10:47:58.858Z,68.20
2022-09-04T10:53:21.295Z,64.90
2022-09-04T10:58:45.082Z,59.50
2022-09-04T11:04:06.497Z,60.10
2022-09-04T11:09:43.487Z,59.10
2022-09-04T11:15:04.572Z,56.60
2022-09-04T11:20:36.330Z,59.00
2022-09-04T11:26:14.042Z,54.20
2022-09-04T11:31:49.153Z,59.20
2022-09-04T11:37:19.579Z,59.60
2022-09-04T11:42:31.168Z,61.10
2022-09-04T11:48:13.590Z,57.60
2022-09-04T11:53:34.930Z,57.20
2022-09-04T11:59:10.957Z,60.60
2022-09-04T12:04:48.273Z,69.30
2022-09-04T12:10:18.029Z,73.10
2022-09-04T12:15:59.904Z,68.00
2022-09-04T12:21:41.111Z,71.60
2022-09-04T12:27:14.203Z,76.10
2022-09-04T12:33:01.446Z,63.70
2022-09-04T12:38:25.251Z,54.70
2022-09-04T12:43:42.976Z,51.30
2022-09-04T12:49:07.755Z,48.00
2022-09-04T12:54:31.556Z,54.90
2022-09-04T12:59:46.041Z,50.00
2022-09-04T13:04:59.145Z,55.30
2022-09-04T13:10:18.617Z,51.10
2022-09-04T13:15:31.057Z,52.90
2022-09-04T13:20:41.526Z,51.60
2022-09-04T13:25:57.743Z,49.80
2022-09-04T13:31:26.953Z,52.30
2022-09-04T13:36:39.501Z,61.00
2022-09-04T13:42:15.306Z,57.60
2022-09-04T13:47:22.882Z,56.20
2022-09-04T13:52:40.104Z,59.30
2022-09-04T13:57:50.027Z,56.20
2022-09-04T14:02:58.930Z,54.20
2022-09-04T14:08:05.911Z,61.10
2022-09-04T14:13:25.648Z,58.10
2022-09-04T14:18:49.337Z,54.10
2022-09-04T14:24:03.358Z,55.00
2022-09-04T14:29:22.273Z,51.40
2022-09-04T14:34:40.038Z,44.10
2022-09-04T14:39:49.864Z,50.60
2022-09-04T14:45:13.618Z,55.00
2022-09-04T14:50:19.253Z,53.50
2022-09-04T14:55:26.916Z,58.60
2022-09-04T15:00:34.910Z,63.50
2022-09-04T15:05:48.273Z,64.00
2022-09-04T15:10:54.913Z,64.00
2022-09-04T15:16:10.072Z,66.00
2022-09-04T15:21:21.299Z,66.60
2022-09-04T15:26:31.922Z,65.90
2022-09-04T15:31:40.007Z,66.20
2022-09-04T15:36:43.638Z,62.60
2022-09-04T15:41:51.614Z,57.50
2022-09-04T15:47:05.218Z,53.90
2022-09-04T15:52:24.367Z,52.10
2022-09-04T15:57:36.145Z,60.10
2022-09-04T16:02:54.923Z,63.50
2022-09-04T16:08:05.300Z,56.50
2022-09-04T16:13:35.030Z,55.90
2022-09-04T16:18:53.674Z,54.20
2022-09-04T16:23:59.822Z,56.50
2022-09-04T16:29:07.130Z,58.70
2022-09-04T16:34:22.796Z,58.80
2022-09-04T16:39:32.868Z,53.80
2022-09-04T16:44:39.563Z,52.40
2022-09-04T16:49:51.488Z,51.70
2022-09-04T16:54:56.563Z,51.10
2022-09-04T17:00:02.670Z,51.60
2022-09-04T17:05:19.069Z,52.60
2022-09-04T17:10:36.730Z,56.20
2022-09-04T17:15:53.329Z,61.50
2022-09-04T17:25:26.464Z,63.70
2022-09-04T17:29:15.598Z,67.20
2022-09-04T17:32:25.585Z,69.60
2022-09-04T17:40:39.216Z,69.40
2022-09-04T17:43:23.258Z,71.10
2022-09-04T17:48:31.448Z,72.70
2022-09-04T17:53:39.895Z,75.40
2022-09-04T17:58:50.451Z,78.70
2022-09-04T18:04:20.514Z,80.30
2022-09-04T18:09:37.000Z,85.20
2022-09-04T18:14:51.620Z,88.20
2022-09-04T18:20:24.165Z,90.30
2022-09-04T18:25:31.795Z,91.90
2022-09-04T18:37:06.172Z,93.40
2022-09-04T18:37:26.559Z,97.70
2022-09-04T18:50:24.307Z,99.70
2022-09-04T18:50:36.087Z,99.90
2022-09-04T18:53:10.630Z,99.90
2022-09-04T18:58:49.284Z,99.90
2022-09-04T19:03:57.516Z,99.90
2022-09-04T19:09:10.242Z,99.90
2022-09-04T19:14:19.182Z,99.90
2022-09-04T19:19:31.619Z,99.90
2022-09-04T19:24:40.053Z,99.90
2022-09-04T19:29:52.850Z,99.90
2022-09-04T19:35:05.904Z,99.90
2022-09-04T19:43:49.823Z,99.90
2022-09-04T19:46:25.875Z,99.90
2022-09-04T19:53:24.424Z,99.90
2022-09-04T19:57:33.369Z,99.90
2022-09-04T20:02:47.093Z,99.90
2022-09-04T20:07:55.404Z,99.90
2022-09-04T20:13:06.578Z,99.90
2022-09-04T20:18:19.197Z,99.90
2022-09-04T20:23:34.460Z,99.90
2022-09-04T20:28:53.067Z,99.90
2022-09-04T20:34:03.653Z,99.90
2022-09-04T20:39:19.585Z,99.90
2022-09-04T20:44:29.679Z,99.90
2022-09-04T20:52:55.270Z,99.90
2022-09-04T20:55:25.224Z,99.90
2022-09-04T21:03:07.790Z,99.90
2022-09-04T21:06:07.667Z,99.90
2022-09-04T21:11:39.056Z,99.90
2022-09-04T21:17:02.576Z,99.90
2022-09-04T21:22:36.496Z,99.90
2022-09-04T21:28:17.883Z,99.90
2022-09-04T21:33:29.000Z,99.90
2022-09-04T21:38:59.587Z,99.90
2022-09-04T21:44:29.418Z,99.90
2022-09-04T21:50:23.969Z,99.90
2022-09-04T22:00:56.285Z,99.90
2022-09-04T22:02:41.882Z,99.90
2022-09-04T22:10:22.999Z,99.90
2022-09-04T22:13:41.295Z,99.90
2022-09-04T22:18:22.694Z,99.90
2022-09-04T22:24:10.898Z,99.90
2022-09-04T22:29:40.071Z,99.90
2022-09-04T22:35:22.447Z,99.90
2022-09-04T22:40:42.053Z,99.90
2022-09-04T22:46:30.661Z,99.90
2022-09-04T22:52:00.944Z,99.90
2022-09-04T22:57:09.416Z,99.90
2022-09-04T23:13:22.055Z,99.90
2022-09-04T23:14:07.574Z,99.90
2022-09-04T23:21:02.516Z,99.90
2022-09-04T23:26:48.654Z,99.90
2022-09-04T23:31:08.516Z,99.90
2022-09-04T23:36:47.246Z,99.90
2022-09-04T23:41:56.908Z,99.90
2022-09-04T23:47:47.986Z,99.90
2022-09-04T23:53:00.958Z,99.90
2022-09-04T23:58:29.151Z,99.90
